METAR Data
IDs: Format: Raw Decoded Include TAF

Data at: 1517 UTC 18 Aug 2019

PAGN 181456Z AUTO 35015G20KT 10SM CLR 13/M04 A2980 RMK AO2 SLP080 T01331044 58004
PAGN 181356Z AUTO 36013G16KT 10SM CLR 13/M02 A2981 RMK AO2 SLP083 T01281022
PAGN 181156Z AUTO 34010KT 10SM CLR 11/01 A2981 RMK AO2 SLP084 70033 T01110011 10111 20067 51007
PAGN 181056Z AUTO 00000KT 10SM CLR 07/06 A2980 RMK AO2 SLP082 T00720061
PAGN 180856Z AUTO 00000KT 10SM CLR 08/07 A2979 RMK AO2 SLP076 T00780072 401560078 51005
PAGN 180756Z AUTO 00000KT 10SM CLR 09/08 A2978 RMK AO2 SLP075 T00890083
PAGN 180656Z AUTO 00000KT 10SM CLR 10/09 A2978 RMK AO2 SLP074 T01000089
PAGN 180556Z AUTO 02004KT 10SM SCT120 11/10 A2977 RMK AO2 SLP071 60001 T01060100 10139 20106 51015
PAGN 180456Z AUTO 02003KT 10SM OVC110 11/11 A2976 RMK AO2 SLP067 T01110106
PAGN 180356Z AUTO 34005KT 10SM OVC110 12/11 A2975 RMK AO2 SLP063 T01220106
PAGN 180256Z AUTO 00000KT 10SM OVC095 13/12 A2973 RMK AO2 RAE04 SLP056 P0000 60001 T01330122 53002
PAGN 180156Z AUTO 06003KT 10SM -RA OVC070 13/12 A2972 RMK AO2 SLP055 P0000 T01330122
PAGN 180056Z AUTO 04004KT 10SM -RA BKN070 OVC080 13/12 A2972 RMK AO2 SLP054 P0001 T01330122
PAGN 172356Z AUTO 09003KT 9SM -RA OVC060 14/13 A2972 RMK AO2 SLP054 P0002 60024 T01390133 10139 20133 56003
PAGN 172256Z AUTO 00000KT 10SM -RA BKN044 OVC060 14/13 A2973 RMK AO2 RAB39 SLP056 P0000 T01390128
PAGN 172221Z AUTO 00000KT 10SM SCT018 BKN040 OVC049 14/13 A2972 RMK AO2
PAGN 172156Z AUTO VRB06KT 10SM SCT010 BKN018 OVC060 14/13 A2972 RMK AO2 RAE39 SLP054 P0002 T01390128
PAGN 172131Z AUTO VRB03KT 6SM -RA BR BKN008 BKN017 OVC049 13/13 A2973 RMK AO2 CIG 005V011 P0002
PAGN 172117Z AUTO 00000KT 3SM -RA BR SCT008 BKN028 OVC047 13/13 A2973 RMK AO2 P0002
PAGN 172105Z AUTO 00000KT 2SM -RA BR FEW008 BKN033 OVC044 13/13 A2973 RMK AO2 P0001
PAGN 172056Z AUTO 03004KT 1 3/4SM -RA BR FEW007 BKN020 OVC033 13/13 A2973 RMK AO2 SLP057 P0004 60020 T01330128 55008
PAGN 172052Z AUTO 04005KT 1 3/4SM -RA BR FEW007 BKN028 OVC033 13/13 A2973 RMK AO2 P0003
PAGN 172038Z AUTO 01003KT 2SM -RA BR BKN008 BKN011 OVC031 14/13 A2973 RMK AO2 CIG 006V011 P0002
PAGN 172017Z AUTO 34003KT 6SM -RA BR SCT009 BKN013 OVC039 14/13 A2973 RMK AO2 P0000
PAGN 171956Z AUTO VRB05KT 9SM -RA SCT007 OVC041 14/13 A2972 RMK AO2 SLP053 P0003 T01390133
PAGN 171856Z AUTO 00000KT 4SM -RA BR FEW006 BKN009 OVC021 14/13 A2975 RMK AO2 CIG 007V012 SLP063 P0013 T01390128
PAGN 171849Z AUTO VRB04KT 3SM -RA BR FEW006 BKN009 OVC034 14/13 A2975 RMK AO2 CIG 007V012 P0012
PAGN 171842Z AUTO VRB06KT 1 3/4SM RA BR SCT006 BKN009 OVC045 14/13 A2975 RMK AO2 CIG 008V012 P0012
PAGN 171837Z AUTO 00000KT 2SM +RA BR SCT006 BKN024 OVC045 14/13 A2975 RMK AO2 VIS 1 1/2V3 P0009
PAGN 171828Z AUTO 00000KT 2 1/2SM RA BR SCT025 BKN034 OVC043 14/13 A2975 RMK AO2 VIS 2V3 P0005
PAGN 171819Z AUTO 00000KT 1 3/4SM RA BR SCT025 BKN031 OVC044 14/13 A2975 RMK AO2 P0003
PAGN 171815Z AUTO 00000KT 2SM -RA BR SCT025 BKN029 OVC044 14/13 A2975 RMK AO2 P0002
PAGN 171556Z AUTO 00000KT 10SM -RA OVC048 14/13 A2980 RMK AO2 SLP081 P0003 T01390133
PAGN 171456Z AUTO 15004KT 10SM -RA OVC042 14/13 A2982 RMK AO2 RAB42 SLP086 P0000 60000 T01440133 56031
PAGN 171356Z AUTO 00000KT 10SM OVC042 15/13 A2984 RMK AO2 SLP095 T01500133
PAGN 171256Z AUTO 00000KT 10SM OVC043 15/13 A2987 RMK AO2 SLP103 T01500133
PAGN 171156Z AUTO 00000KT 10SM OVC055 14/13 A2991 RMK AO2 SLP116 T01440133 10156 20139 58032
PAGN 171056Z AUTO 00000KT 9SM OVC050 15/13 A2994 RMK AO2 SLP126 T01500133
PAGN 170956Z AUTO 16003KT 10SM OVC055 14/13 A2997 RMK AO2 SLP139 T01440133
PAGN 170856Z AUTO 00000KT 10SM OVC050 15/13 A3000 RMK AO2 SLP148 T01500133 401890122 58018
PAGN 170656Z AUTO VRB03KT 10SM OVC047 16/13 A3003 RMK AO2 SLP160 T01560133
PAGN 170556Z AUTO 00000KT 10SM FEW044 BKN060 15/13 A3005 RMK AO2 SLP166 T01500128 10178 20150 56015
PAGN 170456Z AUTO 17004KT 10SM BKN050 16/13 A3007 RMK AO2 SLP171 T01610133
PAGN 170356Z AUTO 00000KT 10SM OVC050 17/14 A3008 RMK AO2 SLP175 T01670139